createdAt,value
2022-10-30T00:01:55.685Z,95.21
2022-10-30T00:04:25.885Z,95.23
2022-10-30T00:06:55.423Z,95.31
2022-10-30T00:09:24.603Z,95.43
2022-10-30T00:11:54.482Z,95.48
2022-10-30T00:14:22.462Z,95.53
2022-10-30T00:16:54.165Z,95.52
2022-10-30T00:19:26.945Z,95.57
2022-10-30T00:24:33.989Z,95.54
2022-10-30T00:27:05.094Z,95.58
2022-10-30T00:29:34.351Z,95.62
2022-10-30T00:32:05.098Z,95.70
2022-10-30T00:34:35.525Z,95.83
2022-10-30T00:37:05.388Z,95.87
2022-10-30T00:39:34.009Z,95.94
2022-10-30T00:42:03.327Z,96.04
2022-10-30T00:44:39.171Z,96.12
2022-10-30T00:47:12.087Z,96.15
2022-10-30T00:49:53.492Z,96.12
2022-10-30T00:52:31.950Z,96.18
2022-10-30T00:55:03.440Z,96.16
2022-10-30T00:57:33.376Z,96.23
2022-10-30T01:00:04.286Z,96.22
2022-10-30T01:02:33.893Z,96.26
2022-10-30T01:07:43.212Z,96.29
2022-10-30T01:10:11.456Z,96.41
2022-10-30T01:12:39.902Z,96.44
2022-10-30T01:15:09.379Z,96.47
2022-10-30T01:17:59.913Z,96.50
2022-10-30T01:20:45.772Z,96.56
2022-10-30T01:23:23.592Z,96.56
2022-10-30T01:26:08.983Z,96.61
2022-10-30T01:28:48.283Z,96.63
2022-10-30T01:31:35.695Z,96.60
2022-10-30T01:34:12.701Z,96.70
2022-10-30T01:36:47.599Z,96.72
2022-10-30T01:39:25.002Z,96.74
2022-10-30T01:41:54.311Z,96.82
2022-10-30T01:44:31.909Z,96.80
2022-10-30T01:47:30.388Z,96.73
2022-10-30T01:50:10.944Z,96.76
2022-10-30T01:52:46.119Z,96.75
2022-10-30T01:55:22.587Z,96.78
2022-10-30T01:57:58.442Z,96.87
2022-10-30T02:00:33.344Z,96.92
2022-10-30T02:03:02.306Z,96.92
2022-10-30T02:05:34.789Z,96.98
2022-10-30T02:08:09.275Z,96.98
2022-10-30T02:10:38.361Z,97.01
2022-10-30T02:13:12.555Z,97.05
2022-10-30T02:15:47.091Z,97.11
2022-10-30T02:18:20.164Z,97.13
2022-10-30T02:20:49.484Z,97.09
2022-10-30T02:23:22.377Z,97.09
2022-10-30T02:25:58.695Z,97.06
2022-10-30T02:28:27.527Z,97.02
2022-10-30T02:31:01.980Z,97.08
2022-10-30T02:33:30.603Z,97.17
2022-10-30T02:36:01.291Z,97.17
2022-10-30T02:38:31.649Z,97.15
2022-10-30T02:41:00.394Z,97.18
2022-10-30T02:43:31.118Z,97.13
2022-10-30T02:46:01.368Z,97.16
2022-10-30T02:48:31.470Z,97.17
2022-10-30T02:51:05.884Z,97.23
2022-10-30T02:53:35.236Z,97.26
2022-10-30T02:56:09.836Z,97.27
2022-10-30T02:58:38.615Z,97.27
2022-10-30T03:01:20.290Z,97.31
2022-10-30T03:03:49.650Z,97.27
2022-10-30T03:06:21.047Z,97.24
2022-10-30T03:08:49.376Z,97.20
2022-10-30T03:11:20.410Z,97.20
2022-10-30T03:13:51.781Z,97.10
2022-10-30T03:16:22.583Z,97.10
2022-10-30T03:18:53.343Z,97.06
2022-10-30T03:21:26.034Z,97.03
2022-10-30T03:24:00.868Z,97.01
2022-10-30T03:26:31.514Z,97.01
2022-10-30T03:28:59.971Z,97.03
2022-10-30T03:31:31.166Z,96.93
2022-10-30T03:33:59.336Z,96.93
2022-10-30T03:36:29.744Z,96.91
2022-10-30T03:38:59.122Z,96.93
2022-10-30T03:41:34.987Z,96.94
2022-10-30T03:44:04.190Z,96.91
2022-10-30T03:46:32.659Z,96.89
2022-10-30T03:49:01.139Z,96.88
2022-10-30T03:51:31.106Z,96.89
2022-10-30T03:54:00.238Z,96.95
2022-10-30T03:56:30.835Z,96.98
2022-10-30T03:59:03.272Z,96.94
2022-10-30T04:01:31.792Z,96.89
2022-10-30T04:04:01.292Z,96.91
2022-10-30T04:06:30.554Z,96.78
2022-10-30T04:09:06.598Z,96.72
2022-10-30T04:11:35.900Z,96.63
2022-10-30T04:14:09.817Z,96.53
2022-10-30T04:16:39.003Z,96.47
2022-10-30T04:19:10.250Z,96.37
2022-10-30T04:21:39.588Z,96.33
2022-10-30T04:24:10.319Z,96.29
2022-10-30T04:26:40.622Z,96.32
2022-10-30T04:29:10.887Z,96.34
2022-10-30T04:31:38.874Z,96.36
2022-10-30T04:34:07.061Z,96.44
2022-10-30T04:36:38.736Z,96.45
2022-10-30T04:39:08.816Z,96.44
2022-10-30T04:41:37.441Z,96.44
2022-10-30T04:44:06.279Z,96.45
2022-10-30T04:46:37.331Z,96.41
2022-10-30T04:49:07.964Z,96.40
2022-10-30T04:51:36.466Z,96.44
2022-10-30T04:54:05.017Z,96.45
2022-10-30T04:56:34.317Z,96.47
2022-10-30T04:59:05.456Z,96.44
2022-10-30T05:01:33.760Z,96.42
2022-10-30T05:04:05.268Z,96.47
2022-10-30T05:06:34.019Z,96.42
2022-10-30T05:09:02.727Z,96.45
2022-10-30T05:11:35.921Z,96.50
2022-10-30T05:14:04.034Z,96.49
2022-10-30T05:16:33.258Z,96.50
2022-10-30T05:19:01.533Z,96.44
2022-10-30T05:21:29.629Z,96.48
2022-10-30T05:23:57.989Z,96.49
2022-10-30T05:26:26.508Z,96.47
2022-10-30T05:28:55.858Z,96.50
2022-10-30T05:31:24.105Z,96.47
2022-10-30T05:33:52.233Z,96.45
2022-10-30T05:36:20.622Z,96.44
2022-10-30T05:38:48.531Z,96.44
2022-10-30T05:41:19.884Z,96.39
2022-10-30T05:43:50.903Z,96.45
2022-10-30T05:46:20.850Z,96.42
2022-10-30T05:48:50.820Z,96.37
2022-10-30T05:51:22.790Z,96.31
2022-10-30T05:53:52.517Z,96.28
2022-10-30T05:56:21.131Z,96.31
2022-10-30T05:58:49.950Z,96.29
2022-10-30T06:01:18.245Z,96.20
2022-10-30T06:03:48.057Z,96.10
2022-10-30T06:06:16.533Z,96.10
2022-10-30T06:08:47.767Z,96.12
2022-10-30T06:11:16.694Z,96.11
2022-10-30T06:13:48.619Z,96.17
2022-10-30T06:16:17.105Z,96.21
2022-10-30T06:18:45.576Z,96.21
2022-10-30T06:21:17.917Z,96.16
2022-10-30T06:23:50.037Z,96.12
2022-10-30T06:26:19.213Z,96.04
2022-10-30T06:28:48.245Z,96.03
2022-10-30T06:31:16.774Z,95.96
2022-10-30T06:33:44.817Z,95.87
2022-10-30T06:36:13.092Z,95.79
2022-10-30T06:38:46.268Z,95.67
2022-10-30T06:41:29.098Z,95.60
2022-10-30T06:43:59.737Z,95.51
2022-10-30T06:46:32.453Z,95.42
2022-10-30T06:49:02.245Z,95.29
2022-10-30T06:51:30.801Z,95.21
2022-10-30T06:54:00.102Z,95.17
2022-10-30T06:56:28.845Z,95.07
2022-10-30T06:58:58.794Z,94.98
2022-10-30T07:01:28.518Z,94.96
2022-10-30T07:03:56.496Z,94.87
2022-10-30T07:06:25.769Z,94.75
2022-10-30T07:08:54.539Z,94.57
2022-10-30T07:11:24.454Z,94.35
2022-10-30T07:13:52.537Z,94.12
2022-10-30T07:16:20.956Z,93.96
2022-10-30T07:18:49.243Z,93.83
2022-10-30T07:21:17.633Z,93.58
2022-10-30T07:23:46.484Z,93.29
2022-10-30T07:26:14.875Z,92.99
2022-10-30T07:28:44.804Z,92.63
2022-10-30T07:31:28.911Z,92.20
2022-10-30T07:34:09.534Z,91.82
2022-10-30T07:36:38.718Z,91.55
2022-10-30T07:39:07.379Z,91.39
2022-10-30T07:41:35.890Z,91.03
2022-10-30T07:44:06.046Z,90.78
2022-10-30T07:46:41.832Z,90.60
2022-10-30T07:49:11.789Z,90.23
2022-10-30T07:51:40.294Z,89.89
2022-10-30T07:54:09.146Z,89.50
2022-10-30T07:56:38.174Z,88.75
2022-10-30T07:59:12.107Z,88.03
2022-10-30T08:01:42.082Z,87.28
2022-10-30T08:04:11.388Z,85.54
2022-10-30T08:06:40.482Z,84.42
2022-10-30T08:09:10.313Z,82.60
2022-10-30T08:11:39.126Z,81.12
2022-10-30T08:14:08.706Z,79.55
2022-10-30T08:16:36.837Z,77.16
2022-10-30T08:19:05.556Z,75.12
2022-10-30T08:21:35.727Z,73.88
2022-10-30T08:24:04.062Z,72.72
2022-10-30T08:26:36.179Z,71.20
2022-10-30T08:29:04.793Z,69.83
2022-10-30T08:31:34.727Z,69.55
2022-10-30T08:34:04.611Z,68.98
2022-10-30T08:36:35.231Z,68.61
2022-10-30T08:39:05.079Z,68.73
2022-10-30T08:41:33.621Z,68.36
2022-10-30T08:44:03.154Z,68.47
2022-10-30T08:46:34.084Z,68.16
2022-10-30T08:49:03.021Z,68.78
2022-10-30T08:51:34.125Z,68.28
2022-10-30T08:54:06.463Z,67.76
2022-10-30T08:56:36.604Z,67.06
2022-10-30T08:59:08.865Z,66.19
2022-10-30T09:01:39.127Z,66.37
2022-10-30T09:04:09.875Z,64.49
2022-10-30T09:06:40.596Z,65.16
2022-10-30T09:09:14.058Z,64.62
2022-10-30T09:11:44.859Z,63.36
2022-10-30T09:14:12.813Z,62.35
2022-10-30T09:16:43.077Z,61.35
2022-10-30T09:19:18.625Z,61.66
2022-10-30T09:21:47.360Z,60.82
2022-10-30T09:24:17.412Z,59.55
2022-10-30T09:26:45.674Z,59.34
2022-10-30T09:29:14.406Z,58.65
2022-10-30T09:31:44.079Z,58.11
2022-10-30T09:34:13.537Z,58.21
2022-10-30T09:36:43.920Z,58.02
2022-10-30T09:39:16.368Z,57.69
2022-10-30T09:42:06.004Z,56.94
2022-10-30T09:44:43.751Z,55.98
2022-10-30T09:47:23.785Z,56.17
2022-10-30T09:50:09.314Z,56.18
2022-10-30T09:52:44.113Z,57.16
2022-10-30T09:55:31.993Z,55.65
2022-10-30T09:58:12.152Z,54.71
2022-10-30T10:00:41.659Z,55.19
2022-10-30T10:03:30.092Z,54.99
2022-10-30T10:06:00.428Z,54.02
2022-10-30T10:08:31.810Z,54.76
2022-10-30T10:11:07.097Z,55.20
2022-10-30T10:13:38.714Z,54.62
2022-10-30T10:16:16.119Z,54.10
2022-10-30T10:18:50.224Z,54.45
2022-10-30T10:21:25.370Z,54.96
2022-10-30T10:24:00.217Z,55.05
2022-10-30T10:26:31.537Z,54.82
2022-10-30T10:29:42.214Z,54.64
2022-10-30T10:32:21.141Z,54.51
2022-10-30T10:35:21.629Z,54.12
2022-10-30T10:37:53.686Z,53.90
2022-10-30T10:40:36.651Z,53.64
2022-10-30T10:43:12.952Z,53.78
2022-10-30T10:45:48.368Z,53.16
2022-10-30T10:48:44.284Z,53.20
2022-10-30T10:51:17.092Z,52.85
2022-10-30T10:53:47.685Z,53.49
2022-10-30T10:56:20.646Z,53.10
2022-10-30T10:58:52.544Z,52.64
2022-10-30T11:01:24.823Z,52.79
2022-10-30T11:04:00.266Z,52.71
2022-10-30T11:06:34.578Z,52.67
2022-10-30T11:09:14.552Z,52.31
2022-10-30T11:11:44.139Z,52.01
2022-10-30T11:14:15.809Z,52.58
2022-10-30T11:17:05.262Z,53.33
2022-10-30T11:19:33.592Z,52.80
2022-10-30T11:22:16.006Z,52.46
2022-10-30T11:24:44.290Z,52.10
2022-10-30T11:27:22.185Z,51.81
2022-10-30T11:29:55.733Z,52.05
2022-10-30T11:32:28.062Z,52.00
2022-10-30T11:35:05.216Z,51.78
2022-10-30T11:37:38.113Z,51.67
2022-10-30T11:40:16.023Z,52.70
2022-10-30T11:42:47.505Z,52.85
2022-10-30T11:45:17.074Z,52.07
2022-10-30T11:47:46.177Z,52.95
2022-10-30T11:50:19.831Z,52.98
2022-10-30T11:52:52.020Z,53.45
2022-10-30T11:55:21.071Z,53.07
2022-10-30T11:57:53.998Z,53.84
2022-10-30T12:00:24.091Z,53.92
2022-10-30T12:02:56.268Z,54.98
2022-10-30T12:05:43.573Z,54.43
2022-10-30T12:08:25.778Z,54.10
2022-10-30T12:11:01.639Z,54.03
2022-10-30T12:13:36.450Z,53.77
2022-10-30T12:16:15.065Z,53.34
2022-10-30T12:18:44.406Z,53.82
2022-10-30T12:21:18.573Z,55.31
2022-10-30T12:23:54.281Z,54.99
2022-10-30T12:26:23.825Z,54.80
2022-10-30T12:28:57.150Z,55.35
2022-10-30T12:31:33.367Z,55.98
2022-10-30T12:34:21.982Z,56.78
2022-10-30T12:36:54.064Z,57.11
2022-10-30T12:39:25.330Z,56.85
2022-10-30T12:41:59.057Z,56.96
2022-10-30T12:44:29.667Z,57.45
2022-10-30T12:47:02.541Z,57.35
2022-10-30T12:49:38.151Z,57.77
2022-10-30T12:52:13.338Z,59.68
2022-10-30T12:55:00.094Z,59.17
2022-10-30T12:57:30.081Z,59.14
2022-10-30T13:00:03.602Z,59.43
2022-10-30T13:02:44.131Z,59.07
2022-10-30T13:05:31.397Z,59.45
2022-10-30T13:08:21.556Z,59.91
2022-10-30T13:10:55.595Z,59.84
2022-10-30T13:13:26.368Z,60.01
2022-10-30T13:16:00.611Z,59.90
2022-10-30T13:18:31.405Z,60.49
2022-10-30T13:21:22.033Z,60.43
2022-10-30T13:23:57.890Z,60.38
2022-10-30T13:26:40.444Z,60.37
2022-10-30T13:29:17.360Z,60.79
2022-10-30T13:31:55.250Z,61.24
2022-10-30T13:34:33.977Z,60.87
2022-10-30T13:37:08.172Z,61.08
2022-10-30T13:39:46.863Z,61.45
2022-10-30T13:42:26.310Z,61.14
2022-10-30T13:45:05.266Z,61.57
2022-10-30T13:47:42.728Z,61.90
2022-10-30T13:50:41.206Z,61.66
2022-10-30T13:53:14.978Z,62.33
2022-10-30T13:55:43.796Z,62.68
2022-10-30T13:58:21.428Z,63.19
2022-10-30T14:01:00.693Z,62.31
2022-10-30T14:03:54.227Z,62.84
2022-10-30T14:06:33.902Z,63.27
2022-10-30T14:09:08.189Z,63.47
2022-10-30T14:11:36.455Z,63.45
2022-10-30T14:14:23.451Z,63.76
2022-10-30T14:17:12.902Z,63.87
2022-10-30T14:20:19.636Z,64.22
2022-10-30T14:23:08.954Z,64.30
2022-10-30T14:25:37.726Z,64.05
2022-10-30T14:28:06.226Z,64.31
2022-10-30T14:30:38.628Z,64.56
2022-10-30T14:33:12.071Z,64.65
2022-10-30T14:35:43.027Z,65.19
2022-10-30T14:38:28.934Z,65.44
2022-10-30T14:41:12.851Z,65.56
2022-10-30T14:44:05.367Z,65.40
2022-10-30T14:46:43.506Z,65.53
2022-10-30T14:49:32.171Z,65.59
2022-10-30T14:52:10.044Z,65.79
2022-10-30T14:57:53.911Z,66.35
2022-10-30T15:00:42.587Z,66.65
2022-10-30T15:03:19.566Z,67.31
2022-10-30T15:05:52.556Z,67.50
2022-10-30T15:08:58.856Z,67.92
2022-10-30T15:11:36.013Z,68.28
2022-10-30T15:17:01.237Z,68.56
2022-10-30T15:19:34.993Z,68.75
2022-10-30T15:22:05.996Z,68.80
2022-10-30T15:24:35.019Z,69.49
2022-10-30T15:27:06.928Z,69.39
2022-10-30T15:29:37.950Z,69.43
2022-10-30T15:32:20.155Z,69.71
2022-10-30T15:34:59.990Z,70.18
2022-10-30T15:37:28.705Z,70.69
2022-10-30T15:40:16.724Z,70.94
2022-10-30T15:42:51.500Z,71.23
2022-10-30T15:45:23.242Z,72.04
2022-10-30T15:47:58.157Z,73.39
2022-10-30T15:50:32.454Z,73.53
2022-10-30T15:53:05.660Z,74.18
2022-10-30T15:55:41.426Z,74.55
2022-10-30T15:58:20.932Z,75.16
2022-10-30T16:00:59.141Z,75.85
2022-10-30T16:03:43.212Z,76.12
2022-10-30T16:06:17.960Z,76.54
2022-10-30T16:08:51.424Z,76.69
2022-10-30T16:11:21.744Z,77.42
2022-10-30T16:13:54.016Z,77.87
2022-10-30T16:16:28.847Z,78.30
2022-10-30T16:19:01.243Z,78.64
2022-10-30T16:21:32.108Z,78.61
2022-10-30T16:24:03.174Z,78.21
2022-10-30T16:26:37.174Z,78.43
2022-10-30T16:29:24.732Z,78.75
2022-10-30T16:31:53.603Z,79.43
2022-10-30T16:34:25.549Z,79.94
2022-10-30T16:36:56.546Z,80.36
2022-10-30T16:39:27.248Z,80.50
2022-10-30T16:41:58.882Z,80.77
2022-10-30T16:44:28.678Z,81.34
2022-10-30T16:46:59.784Z,81.68
2022-10-30T16:49:30.428Z,81.79
2022-10-30T16:52:05.318Z,81.70
2022-10-30T16:54:37.156Z,81.93
2022-10-30T16:57:13.304Z,82.15
2022-10-30T16:59:47.059Z,82.32
2022-10-30T17:02:20.548Z,82.69
2022-10-30T17:04:57.189Z,82.82
2022-10-30T17:07:28.192Z,83.10
2022-10-30T17:10:00.132Z,83.68
2022-10-30T17:12:32.259Z,84.06
2022-10-30T17:15:13.613Z,84.69
2022-10-30T17:17:43.692Z,84.85
2022-10-30T17:20:29.975Z,84.76
2022-10-30T17:23:19.058Z,84.95
2022-10-30T17:25:51.048Z,84.97
2022-10-30T17:28:27.129Z,85.11
2022-10-30T17:30:55.901Z,85.31
2022-10-30T17:33:36.664Z,85.49
2022-10-30T17:36:06.110Z,85.65
2022-10-30T17:38:38.727Z,86.70
2022-10-30T17:41:08.229Z,87.14
2022-10-30T17:43:51.607Z,87.17
2022-10-30T17:46:22.456Z,87.33
2022-10-30T17:48:52.885Z,87.40
2022-10-30T17:51:24.136Z,87.46
2022-10-30T17:53:54.895Z,87.62
2022-10-30T17:56:29.732Z,87.77
2022-10-30T17:58:59.409Z,87.96
2022-10-30T18:01:33.994Z,87.98
2022-10-30T18:04:05.432Z,88.31
2022-10-30T18:06:33.431Z,88.60
2022-10-30T18:09:04.674Z,88.83
2022-10-30T18:11:33.882Z,89.19
2022-10-30T18:14:02.288Z,89.66
2022-10-30T18:16:32.754Z,89.68
2022-10-30T18:19:01.803Z,89.80
2022-10-30T18:21:41.927Z,89.86
2022-10-30T18:24:22.509Z,89.98
2022-10-30T18:26:53.908Z,90.00
2022-10-30T18:29:28.076Z,90.18
2022-10-30T18:31:56.855Z,90.19
2022-10-30T18:34:29.068Z,90.34
2022-10-30T18:36:58.080Z,90.33
2022-10-30T18:39:28.017Z,90.58
2022-10-30T18:41:57.597Z,90.61
2022-10-30T18:44:25.605Z,90.68
2022-10-30T18:47:02.514Z,90.71
2022-10-30T18:49:33.735Z,90.79
2022-10-30T18:52:03.967Z,90.76
2022-10-30T18:54:36.198Z,90.66
2022-10-30T18:57:05.440Z,90.88
2022-10-30T18:59:33.833Z,90.93
2022-10-30T19:02:04.181Z,90.93
2022-10-30T19:04:34.706Z,90.98
2022-10-30T19:07:06.526Z,90.96
2022-10-30T19:09:36.774Z,90.98
2022-10-30T19:12:07.628Z,90.96
2022-10-30T19:14:38.709Z,90.90
2022-10-30T19:17:08.938Z,90.99
2022-10-30T19:19:38.076Z,91.06
2022-10-30T19:22:07.039Z,91.07
2022-10-30T19:24:39.906Z,91.31
2022-10-30T19:27:07.949Z,91.53
2022-10-30T19:29:39.035Z,91.73
2022-10-30T19:32:07.728Z,92.00
2022-10-30T19:34:36.662Z,92.18
2022-10-30T19:37:04.920Z,92.21
2022-10-30T19:39:33.552Z,92.24
2022-10-30T19:42:05.472Z,92.22
2022-10-30T19:44:37.887Z,92.26
2022-10-30T19:47:08.226Z,92.24
2022-10-30T19:49:37.860Z,92.22
2022-10-30T19:52:07.718Z,92.27
2022-10-30T19:54:38.864Z,92.37
2022-10-30T19:57:25.119Z,92.48
2022-10-30T19:59:53.900Z,92.57
2022-10-30T20:02:21.867Z,92.74
2022-10-30T20:04:50.361Z,93.08
2022-10-30T20:07:20.832Z,93.24
2022-10-30T20:09:49.709Z,93.28
2022-10-30T20:12:19.512Z,93.29
2022-10-30T20:14:49.232Z,93.24
2022-10-30T20:17:17.436Z,93.37
2022-10-30T20:19:46.695Z,93.52
2022-10-30T20:22:14.775Z,93.65
2022-10-30T20:24:45.115Z,93.79
2022-10-30T20:27:14.170Z,93.87
2022-10-30T20:29:54.522Z,93.82
2022-10-30T20:32:22.763Z,93.75
2022-10-30T20:34:51.427Z,93.74
2022-10-30T20:37:19.450Z,93.75
2022-10-30T20:39:50.102Z,93.73
2022-10-30T20:42:26.128Z,93.79
2022-10-30T20:44:57.175Z,93.97
2022-10-30T20:47:25.490Z,94.21
2022-10-30T20:49:53.935Z,94.46
2022-10-30T20:52:23.038Z,94.62
2022-10-30T20:54:52.731Z,94.77
2022-10-30T20:57:22.574Z,94.81
2022-10-30T20:59:51.128Z,94.73
2022-10-30T21:02:23.268Z,94.79
2022-10-30T21:04:51.628Z,94.84
2022-10-30T21:07:21.717Z,94.84
2022-10-30T21:09:49.751Z,94.90
2022-10-30T21:12:18.296Z,94.94
2022-10-30T21:14:47.795Z,94.92
2022-10-30T21:17:17.740Z,94.96
2022-10-30T21:19:47.132Z,95.03
2022-10-30T21:22:16.531Z,95.10
2022-10-30T21:24:44.660Z,95.15
2022-10-30T21:27:13.832Z,95.13
2022-10-30T21:29:46.209Z,95.01
2022-10-30T21:32:15.191Z,95.03
2022-10-30T21:34:45.073Z,95.01
2022-10-30T21:37:14.946Z,95.06
2022-10-30T21:39:47.188Z,94.98
2022-10-30T21:42:15.292Z,95.03
2022-10-30T21:44:44.721Z,94.98
2022-10-30T21:47:14.707Z,95.05
2022-10-30T21:49:45.142Z,95.12
2022-10-30T21:52:18.108Z,95.06
2022-10-30T21:54:48.661Z,95.00
2022-10-30T21:57:16.950Z,94.91
2022-10-30T21:59:46.337Z,94.95
2022-10-30T22:02:15.369Z,94.94
2022-10-30T22:04:44.792Z,94.95
2022-10-30T22:07:16.509Z,95.02
2022-10-30T22:09:48.370Z,95.10
2022-10-30T22:12:16.337Z,95.15
2022-10-30T22:14:44.598Z,95.30
2022-10-30T22:17:13.972Z,95.35
2022-10-30T22:19:42.761Z,95.39
2022-10-30T22:22:13.172Z,95.32
2022-10-30T22:24:42.743Z,95.28
2022-10-30T22:27:11.475Z,95.32
2022-10-30T22:29:40.488Z,95.23
2022-10-30T22:32:08.762Z,95.32
2022-10-30T22:34:38.187Z,95.40
2022-10-30T22:37:06.374Z,95.37
2022-10-30T22:39:34.419Z,95.41
2022-10-30T22:42:03.929Z,95.45
2022-10-30T22:44:32.146Z,95.42
2022-10-30T22:47:01.633Z,95.39
2022-10-30T22:49:34.196Z,95.28
2022-10-30T22:52:03.414Z,95.34
2022-10-30T22:54:32.704Z,95.21
2022-10-30T22:57:01.130Z,95.29
2022-10-30T22:59:32.941Z,95.45
2022-10-30T23:02:04.235Z,95.33
2022-10-30T23:04:33.172Z,95.43
2022-10-30T23:07:03.573Z,95.34
2022-10-30T23:09:31.687Z,95.34
2022-10-30T23:12:02.421Z,95.38
2022-10-30T23:14:33.596Z,95.34
2022-10-30T23:17:05.568Z,95.44
2022-10-30T23:19:34.130Z,95.54
2022-10-30T23:22:06.150Z,95.53
2022-10-30T23:24:35.401Z,95.62
2022-10-30T23:27:09.755Z,95.78
2022-10-30T23:29:40.974Z,95.69
2022-10-30T23:32:09.186Z,95.71
2022-10-30T23:34:37.638Z,95.80
2022-10-30T23:37:06.466Z,95.91
2022-10-30T23:39:35.061Z,96.02
2022-10-30T23:42:03.021Z,96.02
2022-10-30T23:44:32.240Z,96.02
2022-10-30T23:47:04.730Z,96.10
2022-10-30T23:49:34.176Z,96.01
2022-10-30T23:52:02.664Z,95.88
2022-10-30T23:54:32.121Z,95.97
2022-10-30T23:57:00.118Z,96.00
2022-10-30T23:59:28.194Z,96.12
